Time;durP1;ratioP1;P1;durP2;ratioP2;P2;SDS_P1;SDS_P2;PMS_P1;PMS_P2;Temp;Humidity;BMP_temperature;BMP_pressure;BME280_temperature;BME280_humidity;BME280_pressure;Samples;Min_cycle;Max_cycle;Signal;HPM_P1;HPM_P2
2023/10/31 00:00:30;;;;;;;;;;;;;;;21.68;53.23;99355.29;109541;1252;22571;-35
2023/10/31 00:03:17;;;;;;;;;1.00;1.00;;;;;21.68;53.10;99354.04;109636;1259;18503;-35
2023/10/31 00:05:45;;;;;;;;;2.00;2.00;;;;;21.69;53.11;99356.92;109508;1254;20383;-34
2023/10/31 00:08:12;;;;;;;;;2.00;2.00;;;;;21.68;53.31;99352.23;109642;1268;19375;-34
2023/10/31 00:10:44;;;;;;;;;2.00;2.00;;;;;21.69;53.02;99349.23;109604;1254;19631;-34
2023/10/31 00:13:12;;;;;;;;;2.00;2.00;;;;;21.68;53.07;99343.64;109597;1254;20132;-34
2023/10/31 00:15:39;;;;;;;;;1.00;1.00;;;;;21.70;53.14;99344.85;109571;1252;20867;-33
2023/10/31 00:18:07;;;;;;;;;2.00;2.00;;;;;21.69;52.99;99340.51;109616;1254;19802;-34
2023/10/31 00:20:34;;;;;;;;;1.00;1.00;;;;;21.67;53.28;99336.56;109596;1253;20058;-34
2023/10/31 00:23:02;;;;;;;;;2.00;2.00;;;;;21.67;53.16;99330.95;109592;1253;20698;-33
2023/10/31 00:25:29;;;;;;;;;1.00;1.00;;;;;21.68;53.03;99328.00;109564;1268;19581;-34
2023/10/31 00:27:56;;;;;;;;;2.00;2.00;;;;;21.69;53.17;99323.06;109557;1254;20042;-33
2023/10/31 00:30:24;;;;;;;;;2.00;2.00;;;;;21.69;53.07;99322.69;109567;1254;20969;-34
2023/10/31 00:32:51;;;;;;;;;2.00;2.00;;;;;21.67;53.10;99312.92;109576;1253;22468;-33
2023/10/31 00:35:19;;;;;;;;;2.00;2.00;;;;;21.67;53.17;99310.20;109569;1261;18593;-34
2023/10/31 00:37:46;;;;;;;;;1.00;1.00;;;;;21.67;53.30;99302.45;109623;1268;19323;-34
2023/10/31 00:40:16;;;;;;;;;2.00;2.00;;;;;21.69;53.03;99296.76;109526;1268;19708;-33
2023/10/31 00:42:43;;;;;;;;;2.00;2.00;;;;;21.68;53.05;99288.09;109648;1253;20103;-34
2023/10/31 00:45:11;;;;;;;;;2.00;2.00;;;;;21.67;53.15;99280.77;109578;1254;20814;-34
2023/10/31 00:47:38;;;;;;;;;2.00;2.00;;;;;21.69;53.39;99278.25;109695;1253;18332;-33
2023/10/31 00:50:05;;;;;;;;;4.00;2.00;;;;;21.68;53.10;99273.65;109663;1254;19962;-33
2023/10/31 00:52:33;;;;;;;;;2.00;2.00;;;;;21.67;53.12;99267.85;109631;1254;20823;-35
2023/10/31 00:55:00;;;;;;;;;2.00;2.00;;;;;21.67;53.35;99262.88;109645;1253;18692;-33
2023/10/31 00:57:28;;;;;;;;;4.00;2.00;;;;;21.67;53.11;99262.79;109574;1268;22217;-33
2023/10/31 00:59:55;;;;;;;;;1.00;1.00;;;;;21.69;53.11;99254.45;109370;1254;20818;-33
2023/10/31 01:02:22;;;;;;;;;2.00;2.00;;;;;21.66;52.99;99251.30;109331;1255;19595;-34
2023/10/31 01:04:50;;;;;;;;;1.00;1.00;;;;;21.67;53.06;99246.30;109364;1254;20009;-33
2023/10/31 01:07:17;;;;;;;;;1.00;1.00;;;;;21.66;53.06;99246.66;109347;1270;21897;-32
2023/10/31 01:09:45;;;;;;;;;2.00;2.00;;;;;21.64;53.19;99239.08;109361;1270;19550;-34
2023/10/31 01:12:12;;;;;;;;;1.00;1.00;;;;;21.64;53.15;99233.38;109351;1257;20059;-34
2023/10/31 01:14:40;;;;;;;;;2.00;2.00;;;;;21.65;53.13;99224.73;109295;1255;22979;-34
2023/10/31 01:17:08;;;;;;;;;2.00;2.00;;;;;21.64;53.36;99218.82;109378;1270;18443;-34
2023/10/31 01:19:35;;;;;;;;;1.00;1.00;;;;;21.63;53.08;99215.19;109380;1255;20079;-33
2023/10/31 01:22:03;;;;;;;;;1.00;1.00;;;;;21.63;53.36;99212.52;109363;1270;19382;-33
2023/10/31 01:24:30;;;;;;;;;1.00;1.00;;;;;21.64;53.06;99207.31;109346;1270;19898;-33
2023/10/31 01:26:57;;;;;;;;;1.00;1.00;;;;;21.66;53.22;99199.37;109373;1255;20429;-34
2023/10/31 01:29:25;;;;;;;;;1.00;1.00;;;;;21.68;53.13;99192.77;109357;1255;20861;-34
2023/10/31 01:31:52;;;;;;;;;2.00;2.00;;;;;21.67;53.08;99189.69;109359;1269;18422;-34
2023/10/31 01:34:20;;;;;;;;;1.50;1.50;;;;;21.65;53.25;99182.83;109369;1258;20103;-32
2023/10/31 01:36:47;;;;;;;;;3.00;2.00;;;;;21.64;53.07;99174.62;109342;1254;22490;-32
2023/10/31 01:39:14;;;;;;;;;2.00;2.00;;;;;21.65;52.97;99162.05;109358;1256;19607;-32
2023/10/31 01:41:42;;;;;;;;;2.00;2.00;;;;;21.66;53.16;99154.33;109370;1255;20080;-33
2023/10/31 01:44:09;;;;;;;;;2.00;1.50;;;;;21.66;53.18;99142.47;109332;1270;19535;-33
2023/10/31 01:46:37;;;;;;;;;4.00;2.00;;;;;21.63;53.02;99130.40;109344;1270;18620;-33
2023/10/31 01:49:04;;;;;;;;;2.00;2.00;;;;;21.64;53.26;99121.55;109378;1255;20382;-33
2023/10/31 01:51:31;;;;;;;;;1.50;1.50;;;;;21.64;53.07;99109.34;109345;1255;20858;-33
2023/10/31 01:53:59;;;;;;;;;2.00;2.00;;;;;21.65;52.96;99106.14;109343;1270;18829;-32
2023/10/31 01:56:26;;;;;;;;;2.00;2.00;;;;;21.68;52.91;99099.58;109287;1255;20048;-33
2023/10/31 01:58:54;;;;;;;;;2.00;2.00;;;;;21.67;53.11;99091.91;109522;1268;20781;-33
2023/10/31 02:01:21;;;;;;;;;2.00;2.00;;;;;21.68;53.13;99086.66;109578;1254;18332;-33
2023/10/31 02:03:48;;;;;;;;;2.00;2.00;;;;;21.68;53.00;99084.55;109558;1256;22718;-35
2023/10/31 02:06:16;;;;;;;;;2.00;2.00;;;;;21.68;52.89;99082.67;109600;1268;19386;-33
2023/10/31 02:08:43;;;;;;;;;1.00;1.00;;;;;21.66;53.06;99074.73;109541;1268;18629;-33
2023/10/31 02:11:11;;;;;;;;;1.00;1.00;;;;;21.66;53.13;99062.57;109529;1255;20222;-33
2023/10/31 02:13:38;;;;;;;;;2.00;2.00;;;;;21.68;52.89;99058.77;109537;1268;20040;-33
2023/10/31 02:16:06;;;;;;;;;1.50;1.50;;;;;21.66;52.80;99053.95;109541;1254;20027;-33
2023/10/31 02:18:33;;;;;;;;;2.00;2.00;;;;;21.64;53.10;99040.10;109523;1268;18684;-34
2023/10/31 02:21:00;;;;;;;;;1.00;1.00;;;;;21.67;53.01;99035.20;109514;1268;19378;-33
2023/10/31 02:23:28;;;;;;;;;1.00;1.00;;;;;21.70;52.79;99035.14;109505;1255;19653;-33
2023/10/31 02:25:55;;;;;;;;;2.00;2.00;;;;;21.65;52.86;99029.67;109529;1254;20054;-33
2023/10/31 02:28:27;;;;;;;;;1.00;1.00;;;;;21.67;52.91;99023.91;109561;1268;19852;-33
2023/10/31 02:30:55;;;;;;;;;2.00;2.00;;;;;21.72;53.00;99016.13;109537;1262;19734;-33
2023/10/31 02:33:22;;;;;;;;;2.00;2.00;;;;;21.67;53.00;99014.20;109564;1268;18722;-34
2023/10/31 02:35:50;;;;;;;;;2.00;2.00;;;;;21.65;53.07;99007.34;109552;1255;19414;-33
2023/10/31 02:38:17;;;;;;;;;2.00;2.00;;;;;21.65;53.11;98998.39;109511;1268;19486;-33
2023/10/31 02:40:45;;;;;;;;;2.00;2.00;;;;;21.66;52.89;98994.23;109425;1268;23430;-35
2023/10/31 02:43:12;;;;;;;;;4.00;2.00;;;;;21.64;52.97;98993.45;109410;1268;19413;-33
2023/10/31 02:45:39;;;;;;;;;2.00;2.00;;;;;21.68;52.86;98988.11;109472;1256;19637;-33
2023/10/31 02:48:07;;;;;;;;;1.00;1.00;;;;;21.65;53.08;98980.09;109520;1254;20041;-33
2023/10/31 02:50:35;;;;;;;;;2.00;2.00;;;;;21.66;52.87;98979.29;109445;1254;20833;-33
2023/10/31 02:53:02;;;;;;;;;2.00;2.00;;;;;21.65;52.85;98979.86;109433;1255;19638;-33
2023/10/31 02:55:29;;;;;;;;;2.00;2.00;;;;;21.64;52.88;98977.94;109509;1254;21520;-33
2023/10/31 02:57:57;;;;;;;;;2.00;1.00;;;;;21.66;53.12;98970.64;109488;1268;19573;-33
2023/10/31 03:00:25;;;;;;;;;1.50;1.50;;;;;21.66;52.91;98964.32;109494;1268;19665;-33
2023/10/31 03:02:53;;;;;;;;;2.00;2.00;;;;;21.64;53.07;98957.23;109507;1255;20058;-33
2023/10/31 03:05:20;;;;;;;;;3.00;2.00;;;;;21.62;53.09;98953.87;109492;1255;20817;-33
2023/10/31 03:07:48;;;;;;;;;2.00;2.00;;;;;21.62;52.82;98949.51;109558;1255;19654;-33
2023/10/31 03:10:15;;;;;;;;;1.00;1.00;;;;;21.60;53.05;98946.94;109533;1268;18660;-34
2023/10/31 03:12:43;;;;;;;;;2.00;2.00;;;;;21.60;52.98;98941.61;109538;1268;19557;-33
2023/10/31 03:15:10;;;;;;;;;2.00;2.00;;;;;21.60;53.20;98934.79;109547;1256;19610;-33
2023/10/31 03:17:38;;;;;;;;;2.00;2.00;;;;;21.61;52.95;98935.45;109532;1254;20121;-32
2023/10/31 03:20:05;;;;;;;;;2.00;2.00;;;;;21.61;53.11;98934.44;109516;1254;21882;-33
2023/10/31 03:22:33;;;;;;;;;2.00;2.00;;;;;21.62;52.97;98929.50;109525;1255;22840;-33
2023/10/31 03:25:01;;;;;;;;;1.00;1.00;;;;;21.63;52.99;98922.23;109572;1254;22234;-33
2023/10/31 03:27:28;;;;;;;;;2.00;2.00;;;;;21.62;53.17;98919.76;109529;1255;20834;-33
2023/10/31 03:29:55;;;;;;;;;2.00;2.00;;;;;21.62;52.92;98915.81;109512;1268;18461;-34
2023/10/31 03:32:23;;;;;;;;;2.00;2.00;;;;;21.63;53.01;98904.23;109540;1268;18673;-34
2023/10/31 03:34:50;;;;;;;;;2.00;2.00;;;;;21.63;53.03;98900.27;109541;1255;21908;-33
2023/10/31 03:37:18;;;;;;;;;2.00;2.00;;;;;21.62;53.16;98897.67;109541;1268;19565;-34
2023/10/31 03:39:45;;;;;;;;;2.00;2.00;;;;;21.62;52.89;98892.45;109494;1255;22176;-34
2023/10/31 03:42:12;;;;;;;;;2.00;2.00;;;;;21.63;53.01;98894.44;109528;1268;19336;-33
2023/10/31 03:44:40;;;;;;;;;1.00;1.00;;;;;21.63;53.11;98888.66;109534;1264;19557;-34
2023/10/31 03:47:07;;;;;;;;;2.00;2.00;;;;;21.61;53.16;98884.46;109611;1255;22378;-34
2023/10/31 03:49:35;;;;;;;;;2.00;2.00;;;;;21.62;52.98;98872.98;109494;1255;20790;-33
2023/10/31 03:52:02;;;;;;;;;2.00;2.00;;;;;21.61;53.28;98865.01;109585;1268;22333;-33
2023/10/31 03:54:29;;;;;;;;;2.00;2.00;;;;;21.61;53.16;98857.70;109634;1255;20049;-33
2023/10/31 03:56:57;;;;;;;;;1.50;1.50;;;;;21.62;52.95;98856.80;109639;1255;22190;-33
2023/10/31 03:59:24;;;;;;;;;2.00;2.00;;;;;21.61;52.91;98847.64;109616;1256;19605;-33
2023/10/31 04:01:52;;;;;;;;;3.00;2.00;;;;;21.62;53.12;98840.73;109663;1268;18710;-33
2023/10/31 04:04:19;;;;;;;;;2.00;2.00;;;;;21.63;52.99;98834.91;109609;1268;19650;-34
2023/10/31 04:06:46;;;;;;;;;2.00;2.00;;;;;21.64;53.16;98825.67;109624;1268;21004;-34
2023/10/31 04:09:14;;;;;;;;;4.00;2.00;;;;;21.64;53.01;98825.55;109661;1268;19498;-33
2023/10/31 04:11:43;;;;;;;;;2.00;2.00;;;;;21.63;53.06;98822.60;109635;1268;19738;-33
2023/10/31 04:14:10;;;;;;;;;4.00;2.00;;;;;21.65;52.80;98820.73;109648;1254;19686;-34
2023/10/31 04:16:38;;;;;;;;;1.50;1.50;;;;;21.69;52.85;98819.09;109602;1256;20060;-33
2023/10/31 04:19:05;;;;;;;;;2.00;2.00;;;;;21.64;53.01;98814.84;109618;1258;20774;-33
2023/10/31 04:21:32;;;;;;;;;2.00;2.00;;;;;21.64;52.93;98805.06;109608;1254;19753;-33
2023/10/31 04:24:00;;;;;;;;;2.00;2.00;;;;;21.63;53.09;98802.60;109619;1255;21182;-33
2023/10/31 04:26:27;;;;;;;;;2.00;2.00;;;;;21.62;53.01;98798.87;109597;1255;20766;-33
2023/10/31 04:28:55;;;;;;;;;2.00;2.00;;;;;21.65;53.01;98796.14;109608;1254;19655;-33
2023/10/31 04:31:22;;;;;;;;;2.00;2.00;;;;;21.66;52.81;98789.92;109596;1254;18574;-34
2023/10/31 04:33:49;;;;;;;;;2.67;2.00;;;;;21.65;52.96;98786.30;109599;1264;20799;-33
2023/10/31 04:36:17;;;;;;;;;2.00;2.00;;;;;21.63;52.82;98780.96;109590;1268;18605;-33
2023/10/31 04:38:44;;;;;;;;;4.00;4.00;;;;;21.63;52.90;98775.48;109601;1263;20241;-34
2023/10/31 04:41:12;;;;;;;;;2.00;2.00;;;;;21.61;52.96;98771.22;109612;1255;20837;-33
2023/10/31 04:43:41;;;;;;;;;2.00;2.00;;;;;21.62;53.07;98769.52;109593;1254;19628;-33
2023/10/31 04:46:09;;;;;;;;;2.00;2.00;;;;;21.65;53.03;98763.14;109590;1255;20113;-33
2023/10/31 04:48:36;;;;;;;;;2.00;2.00;;;;;21.65;52.95;98767.80;109596;1254;22945;-33
2023/10/31 04:51:03;;;;;;;;;4.00;2.00;;;;;21.64;52.78;98760.66;109615;1268;18483;-33
2023/10/31 04:53:32;;;;;;;;;2.00;2.00;;;;;21.63;52.88;98763.04;109595;1255;20713;-33
2023/10/31 04:56:00;;;;;;;;;2.00;2.00;;;;;21.61;52.81;98757.19;109538;1268;20714;-33
2023/10/31 04:58:28;;;;;;;;;2.00;2.00;;;;;21.62;53.06;98749.77;109525;1254;19627;-33
2023/10/31 05:00:55;;;;;;;;;3.00;2.00;;;;;21.63;52.97;98751.70;109524;1268;18650;-33
2023/10/31 05:03:23;;;;;;;;;2.00;2.00;;;;;21.63;52.86;98748.55;109525;1255;20866;-33
2023/10/31 05:05:50;;;;;;;;;2.00;2.00;;;;;21.63;53.12;98746.38;109245;1268;393033;-33
2023/10/31 05:08:17;;;;;;;;;3.00;3.00;;;;;21.63;53.06;98739.29;109545;1262;22712;-33
2023/10/31 05:10:47;;;;;;;;;4.00;4.00;;;;;21.62;53.06;98734.73;109547;1268;20730;-33
2023/10/31 05:13:15;;;;;;;;;2.00;2.00;;;;;21.61;53.16;98735.48;109566;1268;18478;-33
2023/10/31 05:15:42;;;;;;;;;2.00;2.00;;;;;21.62;52.88;98734.87;109557;1254;20039;-33
2023/10/31 05:18:10;;;;;;;;;2.00;2.00;;;;;21.60;52.99;98736.77;109557;1268;20594;-32
2023/10/31 05:20:37;;;;;;;;;4.00;4.00;;;;;21.61;52.92;98735.09;109547;1268;19587;-33
2023/10/31 05:23:04;;;;;;;;;4.00;4.00;;;;;21.63;52.88;98725.98;109548;1264;22497;-32
2023/10/31 05:25:32;;;;;;;;;2.00;2.00;;;;;21.61;52.91;98721.98;109528;1255;20994;-32
2023/10/31 05:28:00;;;;;;;;;2.00;2.00;;;;;21.60;52.75;98711.77;109419;1255;19630;-33
2023/10/31 05:30:27;;;;;;;;;4.50;4.00;;;;;21.60;52.97;98712.79;109598;1268;21447;-33
2023/10/31 05:32:55;;;;;;;;;2.00;2.00;;;;;21.62;52.95;98706.88;109543;1268;19381;-33
2023/10/31 05:35:22;;;;;;;;;2.00;2.00;;;;;21.71;52.77;98709.88;109572;1254;19632;-33
2023/10/31 05:37:49;;;;;;;;;4.00;4.00;;;;;21.72;52.81;98703.17;109563;1268;19998;-32
2023/10/31 05:40:17;;;;;;;;;4.00;4.00;;;;;21.70;53.01;98698.79;109462;1255;20807;-33
2023/10/31 05:42:45;;;;;;;;;4.00;4.00;;;;;21.72;53.09;98687.48;109482;1254;19617;-33
2023/10/31 05:45:13;;;;;;;;;2.00;2.00;;;;;21.70;53.55;98685.83;109571;1268;18565;-33
2023/10/31 05:47:40;;;;;;;;;3.00;3.00;;;;;21.72;53.68;98683.77;109434;1254;20803;-33
2023/10/31 05:50:07;;;;;;;;;4.00;4.00;;;;;21.77;53.67;98690.52;109435;1262;19305;-33
2023/10/31 05:52:36;;;;;;;;;2.00;2.00;;;;;21.76;53.67;98689.08;109477;1264;20207;-33
2023/10/31 05:55:03;;;;;;;;;4.00;4.00;;;;;21.78;53.94;98688.59;109559;1257;20824;-34
2023/10/31 05:57:31;;;;;;;;;2.00;2.00;;;;;21.84;53.64;98686.61;109574;1254;22183;-33
2023/10/31 05:59:58;;;;;;;;;4.00;2.00;;;;;21.85;54.21;98683.14;109547;1268;19935;-33
2023/10/31 06:02:26;;;;;;;;;4.00;4.00;;;;;21.88;54.09;98690.27;109549;1268;19344;-33
2023/10/31 06:04:53;;;;;;;;;4.00;4.00;;;;;21.87;54.19;98692.08;109539;1255;19627;-33
2023/10/31 06:07:21;;;;;;;;;4.50;4.50;;;;;21.89;54.28;98688.20;109535;1255;20131;-33
2023/10/31 06:09:48;;;;;;;;;5.67;5.00;;;;;21.94;54.13;98687.14;109551;1265;19412;-33
2023/10/31 06:12:15;;;;;;;;;9.00;9.00;;;;;21.93;54.58;98682.69;109530;1254;20067;-33
2023/10/31 06:14:43;;;;;;;;;8.00;8.00;;;;;22.00;54.74;98682.43;109540;1268;20372;-32
2023/10/31 06:17:10;;;;;;;;;5.00;5.00;;;;;21.97;54.83;98684.66;109515;1254;22221;-32
2023/10/31 06:19:38;;;;;;;;;4.50;4.50;;;;;21.93;54.82;98688.70;109520;1254;22137;-35
2023/10/31 06:22:05;;;;;;;;;2.00;2.00;;;;;21.97;54.84;98691.88;109502;1268;18619;-34
2023/10/31 06:24:33;;;;;;;;;4.00;4.00;;;;;21.89;54.83;98688.13;109487;1254;21927;-34
2023/10/31 06:27:00;;;;;;;;;2.00;2.00;;;;;21.83;55.10;98684.63;109492;1254;19604;-35
2023/10/31 06:29:28;;;;;;;;;2.00;2.00;;;;;21.84;54.81;98684.17;109425;1263;19044;-33
2023/10/31 06:31:55;;;;;;;;;2.00;2.00;;;;;21.80;54.86;98681.76;109437;1268;19603;-33
2023/10/31 06:34:23;;;;;;;;;4.50;4.50;;;;;21.83;54.41;98678.92;109459;1268;18581;-33
2023/10/31 06:36:52;;;;;;;;;5.00;4.00;;;;;21.85;54.74;98685.48;109461;1268;18705;-33
2023/10/31 06:39:19;;;;;;;;;7.00;5.00;;;;;21.87;54.79;98685.95;109458;1254;22404;-33
2023/10/31 06:41:47;;;;;;;;;4.33;4.33;;;;;21.87;54.87;98683.05;109429;1254;19603;-33
2023/10/31 06:44:14;;;;;;;;;4.00;4.00;;;;;21.85;54.78;98682.54;109434;1255;20067;-33
2023/10/31 06:46:41;;;;;;;;;5.00;5.00;;;;;21.82;54.73;98678.73;109467;1268;19354;-33
2023/10/31 06:49:09;;;;;;;;;5.00;5.00;;;;;21.78;55.11;98673.42;109490;1268;18429;-33
2023/10/31 06:51:36;;;;;;;;;2.00;2.00;;;;;21.79;54.87;98671.75;109344;1270;22542;-35
2023/10/31 06:54:04;;;;;;;;;4.00;4.00;;;;;21.79;54.70;98669.89;109357;1270;19362;-33
2023/10/31 06:56:31;;;;;;;;;4.00;4.00;;;;;21.78;54.76;98668.97;109326;1255;19643;-33
2023/10/31 06:58:58;;;;;;;;;3.00;3.00;;;;;21.77;54.82;98666.85;109338;1270;21995;-33
2023/10/31 07:01:26;;;;;;;;;2.00;2.00;;;;;21.77;54.97;98662.46;109350;1270;20741;-33
2023/10/31 07:03:54;;;;;;;;;2.00;2.00;;;;;21.75;54.72;98657.08;109319;1270;18614;-33
2023/10/31 07:06:22;;;;;;;;;2.00;2.00;;;;;21.77;54.86;98658.65;109361;1254;21349;-32
2023/10/31 07:08:49;;;;;;;;;2.00;2.00;;;;;21.76;54.61;98651.05;109367;1270;20700;-33
2023/10/31 07:11:17;;;;;;;;;4.00;4.00;;;;;21.73;54.65;98647.00;109371;1255;19661;-32
2023/10/31 07:13:45;;;;;;;;;4.00;3.00;;;;;21.73;54.83;98646.14;109312;1270;23136;-33
2023/10/31 07:16:12;;;;;;;;;2.00;2.00;;;;;21.72;54.81;98642.87;109368;1270;19354;-33
2023/10/31 07:18:39;;;;;;;;;2.00;2.00;;;;;21.72;54.82;98642.13;109366;1255;19686;-33
2023/10/31 07:21:07;;;;;;;;;2.00;2.00;;;;;21.73;54.82;98642.86;109316;1256;22656;-33
2023/10/31 07:23:34;;;;;;;;;2.00;2.00;;;;;21.72;54.58;98640.88;109367;1262;19391;-33
2023/10/31 07:26:02;;;;;;;;;4.00;4.00;;;;;21.72;54.52;98639.85;109364;1256;19641;-33
2023/10/31 07:28:29;;;;;;;;;4.00;2.00;;;;;21.71;54.50;98641.05;109336;1270;22654;-33
2023/10/31 07:30:56;;;;;;;;;2.00;2.00;;;;;21.71;54.80;98635.77;109358;1270;19699;-33
2023/10/31 07:33:24;;;;;;;;;2.00;2.00;;;;;21.70;54.46;98632.14;109232;1255;21856;-34
2023/10/31 07:35:51;;;;;;;;;4.00;2.00;;;;;21.69;54.70;98632.27;109342;1269;19998;-33
2023/10/31 07:38:19;;;;;;;;;2.00;2.00;;;;;21.69;54.59;98631.89;109321;1270;21928;-33
2023/10/31 07:40:47;;;;;;;;;2.00;2.00;;;;;21.70;54.72;98623.83;109342;1254;23408;-34
2023/10/31 07:43:15;;;;;;;;;2.00;2.00;;;;;21.70;54.53;98614.80;109331;1269;18791;-34
2023/10/31 07:45:42;;;;;;;;;2.00;2.00;;;;;21.69;54.68;98611.34;109367;1254;19277;-34
2023/10/31 07:48:10;;;;;;;;;2.00;2.00;;;;;21.70;54.49;98607.08;109390;1269;18499;-33
2023/10/31 07:50:37;;;;;;;;;1.00;1.00;;;;;21.71;54.44;98605.55;109490;1268;21158;-34
2023/10/31 07:53:04;;;;;;;;;5.00;4.00;;;;;21.73;54.49;98607.66;109637;1254;20943;-34
2023/10/31 07:55:32;;;;;;;;;2.00;2.00;;;;;21.71;54.37;98608.19;109616;1254;21344;-32
2023/10/31 07:57:59;;;;;;;;;2.00;2.00;;;;;21.69;54.60;98609.13;109622;1268;18843;-33
2023/10/31 08:00:27;;;;;;;;;2.00;2.00;;;;;21.73;54.38;98604.71;109647;1268;19317;-33
2023/10/31 08:02:54;;;;;;;;;2.00;2.00;;;;;21.71;54.35;98604.31;109639;1253;21723;-33
2023/10/31 08:05:22;;;;;;;;;1.00;1.00;;;;;21.72;54.38;98609.79;109656;1268;18623;-34
2023/10/31 08:07:49;;;;;;;;;2.00;2.00;;;;;21.70;54.44;98605.69;109666;1253;20839;-33
2023/10/31 08:10:16;;;;;;;;;1.00;1.00;;;;;21.67;54.44;98601.11;109663;1268;19547;-33
2023/10/31 08:12:44;;;;;;;;;2.00;2.00;;;;;21.68;54.55;98597.48;109618;1254;21199;-33
2023/10/31 08:15:11;;;;;;;;;2.00;2.00;;;;;21.75;54.08;98598.63;109639;1268;19376;-33
2023/10/31 08:17:39;;;;;;;;;2.00;2.00;;;;;21.79;54.16;98601.58;109669;1268;18718;-33
2023/10/31 08:20:06;;;;;;;;;1.50;1.00;;;;;21.72;54.15;98605.29;109631;1268;18849;-33
2023/10/31 08:22:34;;;;;;;;;2.00;2.00;;;;;21.71;54.40;98605.30;109640;1268;19394;-33
2023/10/31 08:25:01;;;;;;;;;1.67;1.67;;;;;21.70;54.08;98604.19;109651;1263;18508;-33
2023/10/31 08:27:29;;;;;;;;;2.00;2.00;;;;;21.70;54.34;98609.31;109618;1268;20028;-33
2023/10/31 08:29:56;;;;;;;;;2.00;2.00;;;;;21.67;54.33;98609.59;109597;1253;20943;-33
2023/10/31 08:32:24;;;;;;;;;1.00;1.00;;;;;21.67;54.42;98608.14;109626;1253;22796;-33
2023/10/31 08:34:53;;;;;;;;;1.00;1.00;;;;;21.67;54.25;98608.81;109621;1268;18649;-33
2023/10/31 08:37:21;;;;;;;;;1.00;1.00;;;;;21.66;54.49;98612.69;109644;1261;22339;-34
2023/10/31 08:39:49;;;;;;;;;2.00;2.00;;;;;21.67;54.14;98614.75;109654;1258;19608;-33
2023/10/31 08:42:16;;;;;;;;;1.00;1.00;;;;;21.67;54.28;98614.30;109677;1254;20037;-34
2023/10/31 08:44:43;;;;;;;;;2.00;2.00;;;;;21.68;54.33;98617.56;109646;1254;21982;-34
2023/10/31 08:47:12;;;;;;;;;2.00;2.00;;;;;21.67;54.53;98617.91;109644;1253;19605;-33
2023/10/31 08:49:39;;;;;;;;;1.00;1.00;;;;;21.67;54.22;98624.55;109636;1253;21327;-34
2023/10/31 08:52:07;;;;;;;;;2.00;2.00;;;;;21.67;54.19;98624.08;109571;1262;19391;-34
2023/10/31 08:54:34;;;;;;;;;2.00;1.50;;;;;21.67;54.22;98627.69;109554;1254;19664;-33
2023/10/31 08:57:02;;;;;;;;;2.00;2.00;;;;;21.81;53.65;98628.69;109563;1264;20118;-34
2023/10/31 08:59:29;;;;;;;;;2.00;2.00;;;;;21.78;53.80;98638.45;109552;1254;19291;-34
2023/10/31 09:01:56;;;;;;;;;4.00;3.00;;;;;21.73;54.24;98645.10;109595;1264;19599;-33
2023/10/31 09:04:24;;;;;;;;;2.00;2.00;;;;;21.75;53.98;98647.28;109569;1254;20145;-33
2023/10/31 09:06:52;;;;;;;;;2.00;2.00;;;;;21.74;54.16;98654.50;109566;1268;20883;-33
2023/10/31 09:09:19;;;;;;;;;2.00;2.00;;;;;21.67;54.47;98656.00;109511;1254;18418;-33
2023/10/31 09:11:47;;;;;;;;;4.00;4.00;;;;;21.66;54.34;98655.11;109406;1261;20733;-33
2023/10/31 09:14:14;;;;;;;;;4.00;4.00;;;;;21.67;54.49;98661.77;109544;1268;19380;-33
2023/10/31 09:16:41;;;;;;;;;4.00;4.00;;;;;21.69;54.64;98659.04;109558;1254;23950;-32
2023/10/31 09:19:09;;;;;;;;;5.00;5.00;;;;;21.71;55.35;98658.71;109566;1268;18637;-33
2023/10/31 09:21:36;;;;;;;;;4.00;4.00;;;;;21.71;55.39;98657.96;109496;1265;20357;-33
2023/10/31 09:24:04;;;;;;;;;2.00;2.00;;;;;21.72;55.41;98654.66;109522;1268;19577;-33
2023/10/31 09:26:31;;;;;;;;;5.00;5.00;;;;;21.75;55.46;98658.45;109443;1268;18583;-33
2023/10/31 09:28:58;;;;;;;;;4.00;4.00;;;;;21.77;55.33;98660.98;109528;1268;22320;-33
2023/10/31 09:31:26;;;;;;;;;6.00;6.00;;;;;21.79;55.23;98658.35;109457;1255;19633;-33
2023/10/31 09:33:53;;;;;;;;;5.00;5.00;;;;;21.72;55.07;98666.49;109475;1268;18776;-33
2023/10/31 09:36:21;;;;;;;;;7.00;7.00;;;;;21.73;55.37;98673.13;109472;1268;21454;-33
2023/10/31 09:38:48;;;;;;;;;5.00;5.00;;;;;21.66;55.55;98673.95;109512;1268;18501;-33
2023/10/31 09:41:16;;;;;;;;;7.00;5.00;;;;;21.68;55.52;98681.52;109495;1254;20071;-33
2023/10/31 09:43:43;;;;;;;;;5.00;5.00;;;;;21.68;55.29;98682.98;109506;1268;19840;-33
2023/10/31 09:46:11;;;;;;;;;7.00;6.00;;;;;21.71;55.04;98683.10;109501;1254;19601;-33
2023/10/31 09:48:38;;;;;;;;;5.00;4.00;;;;;21.72;54.95;98694.67;109471;1254;22974;-33
2023/10/31 09:51:05;;;;;;;;;7.00;7.00;;;;;21.72;55.20;98689.84;109457;1268;19444;-33
2023/10/31 09:53:33;;;;;;;;;5.00;5.00;;;;;21.68;55.47;98690.04;109507;1268;18936;-33
2023/10/31 09:56:00;;;;;;;;;4.00;4.00;;;;;21.65;55.43;98703.70;109487;1255;20101;-33
2023/10/31 09:58:28;;;;;;;;;7.00;5.00;;;;;21.64;55.37;98710.37;109526;1255;20810;-33
2023/10/31 10:00:56;;;;;;;;;5.00;5.00;;;;;21.60;55.35;98712.02;109518;1255;22790;-33
2023/10/31 10:03:23;;;;;;;;;5.00;5.00;;;;;21.59;55.44;98715.16;109481;1268;19953;-33
2023/10/31 10:05:51;;;;;;;;;8.00;7.00;;;;;21.60;55.45;98719.61;109538;1254;20898;-33
2023/10/31 10:08:18;;;;;;;;;5.00;5.00;;;;;21.61;55.02;98725.22;109535;1254;19619;-33
2023/10/31 10:10:46;;;;;;;;;8.00;7.00;;;;;21.60;55.27;98733.27;109510;1264;20187;-33
2023/10/31 10:13:14;;;;;;;;;7.00;7.00;;;;;21.59;55.21;98733.44;109492;1255;20860;-33
2023/10/31 10:15:41;;;;;;;;;8.00;7.00;;;;;21.62;55.18;98732.08;109461;1263;18531;-33
2023/10/31 10:18:09;;;;;;;;;5.00;5.00;;;;;21.63;55.28;98730.28;109495;1268;19976;-33
2023/10/31 10:20:36;;;;;;;;;7.00;7.00;;;;;21.64;55.29;98726.81;109524;1255;20946;-33
2023/10/31 10:23:03;;;;;;;;;5.00;5.00;;;;;21.66;55.31;98726.88;109558;1268;22050;-33
2023/10/31 10:25:31;;;;;;;;;7.50;7.00;;;;;21.67;55.51;98733.70;109507;1268;20837;-33
2023/10/31 10:27:59;;;;;;;;;7.00;7.00;;;;;21.65;55.69;98740.15;109533;1268;19369;-33
2023/10/31 10:30:26;;;;;;;;;7.00;7.00;;;;;21.73;55.12;98736.38;109529;1255;19591;-33
2023/10/31 10:32:53;;;;;;;;;8.00;8.00;;;;;21.70;55.51;98742.13;109503;1255;22019;-33
2023/10/31 10:35:21;;;;;;;;;7.00;7.00;;;;;21.61;55.76;98743.27;109532;1254;20827;-33
2023/10/31 10:37:48;;;;;;;;;9.33;7.00;;;;;21.57;55.47;98751.86;109537;1254;19858;-33
2023/10/31 10:40:16;;;;;;;;;11.00;9.00;;;;;21.53;55.56;98754.73;109534;1268;18528;-33
2023/10/31 10:42:43;;;;;;;;;9.00;9.00;;;;;21.46;55.37;98758.70;109519;1255;22874;-34
2023/10/31 10:45:11;;;;;;;;;8.00;8.00;;;;;21.39;55.11;98759.81;109531;1255;19951;-33
2023/10/31 10:47:39;;;;;;;;;8.00;8.00;;;;;21.36;55.30;98762.92;109534;1268;20198;-33
2023/10/31 10:50:06;;;;;;;;;9.00;8.00;;;;;21.34;55.15;98774.20;109558;1262;20833;-33
2023/10/31 10:52:35;;;;;;;;;10.00;10.00;;;;;21.31;54.72;98781.41;109560;1262;18478;-33
2023/10/31 10:55:03;;;;;;;;;10.00;8.00;;;;;21.28;54.84;98780.48;109518;1268;20373;-33
2023/10/31 10:57:31;;;;;;;;;7.00;5.00;;;;;21.28;54.54;98786.02;109563;1263;20020;-33
2023/10/31 10:59:58;;;;;;;;;10.00;10.00;;;;;21.29;54.68;98792.69;109520;1268;19912;-33
2023/10/31 11:02:26;;;;;;;;;11.00;10.00;;;;;21.31;54.62;98784.52;109540;1254;21642;-33
2023/10/31 11:04:54;;;;;;;;;11.00;11.00;;;;;21.30;54.55;98780.52;109537;1268;19375;-33
2023/10/31 11:07:23;;;;;;;;;11.50;11.00;;;;;21.26;54.21;98775.33;109557;1268;18776;-33
2023/10/31 11:09:50;;;;;;;;;14.50;12.50;;;;;21.19;54.40;98773.86;109503;1254;18702;-33
2023/10/31 11:12:18;;;;;;;;;10.00;10.00;;;;;21.17;54.60;98775.62;109506;1268;19480;-33
2023/10/31 11:14:45;;;;;;;;;11.00;11.00;;;;;21.21;54.41;98779.00;109505;1255;20018;-33
2023/10/31 11:17:12;;;;;;;;;12.00;12.00;;;;;21.17;54.24;98782.15;109486;1254;18678;-33
2023/10/31 11:19:40;;;;;;;;;13.00;10.67;;;;;21.20;54.07;98777.84;109417;1254;20734;-34
2023/10/31 11:22:07;;;;;;;;;11.00;11.00;;;;;21.18;54.33;98781.33;109462;1268;20251;-33
2023/10/31 11:24:35;;;;;;;;;10.00;10.00;;;;;21.19;54.20;98787.27;109477;1268;18705;-33